sensor_id;sensor_type;location;lat;lon;timestamp;pressure;altitude;pressure_sealevel;temperature;humidity
64862;BME280;62652;42.274;-71.436;2023-04-20T00:00:00;101190.0;;;8.777777777777777;53.5
64862;BME280;62652;42.274;-71.436;2023-04-20T00:01:00;101200.0;;;8.777777777777777;54.0
64862;BME280;62652;42.274;-71.436;2023-04-20T00:02:02;101200.0;;;8.777777777777777;53.7
64862;BME280;62652;42.274;-71.436;2023-04-20T00:03:00;101210.0;;;8.777777777777777;53.8
64862;BME280;62652;42.274;-71.436;2023-04-20T00:04:01;101200.0;;;8.777777777777777;55.2
64862;BME280;62652;42.274;-71.436;2023-04-20T00:05:00;101210.0;;;8.777777777777777;54.7
64862;BME280;62652;42.274;-71.436;2023-04-20T00:06:00;101210.0;;;8.777777777777777;54.9
64862;BME280;62652;42.274;-71.436;2023-04-20T00:07:01;101220.0;;;8.777777777777777;54.6
64862;BME280;62652;42.274;-71.436;2023-04-20T00:08:00;101210.0;;;8.777777777777777;53.9
64862;BME280;62652;42.274;-71.436;2023-04-20T00:09:01;101220.0;;;8.777777777777777;54.2
64862;BME280;62652;42.274;-71.436;2023-04-20T00:10:01;101220.0;;;8.777777777777777;54.0
64862;BME280;62652;42.274;-71.436;2023-04-20T00:11:00;101220.0;;;8.777777777777777;53.4
64862;BME280;62652;42.274;-71.436;2023-04-20T00:12:00;101230.0;;;8.722222222222223;53.5
64862;BME280;62652;42.274;-71.436;2023-04-20T00:13:00;101230.0;;;8.722222222222223;54.0
64862;BME280;62652;42.274;-71.436;2023-04-20T00:14:00;101230.0;;;8.61111111111111;54.0
64862;BME280;62652;42.274;-71.436;2023-04-20T00:15:01;101240.0;;;8.61111111111111;53.8
64862;BME280;62652;42.274;-71.436;2023-04-20T00:16:00;101240.0;;;8.61111111111111;53.9
64862;BME280;62652;42.274;-71.436;2023-04-20T00:17:00;101240.0;;;8.61111111111111;53.7
64862;BME280;62652;42.274;-71.436;2023-04-20T00:18:00;101230.0;;;8.499999999999998;53.9
64862;BME280;62652;42.274;-71.436;2023-04-20T00:19:01;101240.0;;;8.499999999999998;54.4
64862;BME280;62652;42.274;-71.436;2023-04-20T00:20:01;101240.0;;;8.38888888888889;54.2
64862;BME280;62652;42.274;-71.436;2023-04-20T00:21:00;101250.0;;;8.38888888888889;54.2
64862;BME280;62652;42.274;-71.436;2023-04-20T00:22:00;101250.0;;;8.38888888888889;54.1
64862;BME280;62652;42.274;-71.436;2023-04-20T00:23:01;101250.0;;;8.38888888888889;54.7
64862;BME280;62652;42.274;-71.436;2023-04-20T00:24:01;101250.0;;;8.38888888888889;55.0
64862;BME280;62652;42.274;-71.436;2023-04-20T00:25:01;101250.0;;;8.38888888888889;55.0
64862;BME280;62652;42.274;-71.436;2023-04-20T00:26:01;101260.0;;;8.38888888888889;54.9
64862;BME280;62652;42.274;-71.436;2023-04-20T00:27:00;101260.0;;;8.499999999999998;55.5
64862;BME280;62652;42.274;-71.436;2023-04-20T00:28:01;101260.0;;;8.499999999999998;55.6
64862;BME280;62652;42.274;-71.436;2023-04-20T00:29:00;101260.0;;;8.499999999999998;55.2
64862;BME280;62652;42.274;-71.436;2023-04-20T00:30:00;101270.0;;;8.61111111111111;54.5
64862;BME280;62652;42.274;-71.436;2023-04-20T00:31:00;101270.0;;;8.61111111111111;54.4
64862;BME280;62652;42.274;-71.436;2023-04-20T00:32:00;101270.0;;;8.61111111111111;54.3
64862;BME280;62652;42.274;-71.436;2023-04-20T00:33:01;101270.0;;;8.61111111111111;53.9
64862;BME280;62652;42.274;-71.436;2023-04-20T00:34:01;101270.0;;;8.61111111111111;53.9
64862;BME280;62652;42.274;-71.436;2023-04-20T00:35:00;101270.0;;;8.499999999999998;54.0
64862;BME280;62652;42.274;-71.436;2023-04-20T00:36:00;101270.0;;;8.499999999999998;53.9
64862;BME280;62652;42.274;-71.436;2023-04-20T00:37:01;101280.0;;;8.499999999999998;53.9
64862;BME280;62652;42.274;-71.436;2023-04-20T00:38:01;101270.0;;;8.38888888888889;54.2
64862;BME280;62652;42.274;-71.436;2023-04-20T00:39:01;101270.0;;;8.38888888888889;54.6
64862;BME280;62652;42.274;-71.436;2023-04-20T00:40:01;101280.0;;;8.38888888888889;54.2
64862;BME280;62652;42.274;-71.436;2023-04-20T00:41:01;101270.0;;;8.38888888888889;54.4
64862;BME280;62652;42.274;-71.436;2023-04-20T00:42:04;101270.0;;;8.38888888888889;53.9
64862;BME280;62652;42.274;-71.436;2023-04-20T00:43:08;101270.0;;;8.38888888888889;54.5
64862;BME280;62652;42.274;-71.436;2023-04-20T00:44:01;101270.0;;;8.38888888888889;54.5
64862;BME280;62652;42.274;-71.436;2023-04-20T00:45:00;101270.0;;;8.38888888888889;54.4
64862;BME280;62652;42.274;-71.436;2023-04-20T00:46:00;101280.0;;;8.38888888888889;54.9
64862;BME280;62652;42.274;-71.436;2023-04-20T00:47:01;101280.0;;;8.38888888888889;55.2
64862;BME280;62652;42.274;-71.436;2023-04-20T00:48:01;101290.0;;;8.38888888888889;55.1
64862;BME280;62652;42.274;-71.436;2023-04-20T00:49:01;101290.0;;;8.38888888888889;55.2
64862;BME280;62652;42.274;-71.436;2023-04-20T00:50:01;101290.0;;;8.499999999999998;55.2
64862;BME280;62652;42.274;-71.436;2023-04-20T00:51:01;101290.0;;;8.499999999999998;55.1
64862;BME280;62652;42.274;-71.436;2023-04-20T00:52:00;101290.0;;;8.499999999999998;54.6
64862;BME280;62652;42.274;-71.436;2023-04-20T00:53:01;101290.0;;;8.38888888888889;55.0
64862;BME280;62652;42.274;-71.436;2023-04-20T00:54:01;101300.0;;;8.38888888888889;55.0
64862;BME280;62652;42.274;-71.436;2023-04-20T00:55:02;101300.0;;;8.38888888888889;55.4
64862;BME280;62652;42.274;-71.436;2023-04-20T00:56:01;101310.0;;;8.38888888888889;54.5
64862;BME280;62652;42.274;-71.436;2023-04-20T00:57:01;101310.0;;;8.38888888888889;54.4
64862;BME280;62652;42.274;-71.436;2023-04-20T00:58:01;101300.0;;;8.38888888888889;55.1
64862;BME280;62652;42.274;-71.436;2023-04-20T00:59:01;101310.0;;;8.38888888888889;55.7
64862;BME280;62652;42.274;-71.436;2023-04-20T01:00:01;101310.0;;;8.38888888888889;55.5
64862;BME280;62652;42.274;-71.436;2023-04-20T01:01:00;101310.0;;;8.38888888888889;55.2
64862;BME280;62652;42.274;-71.436;2023-04-20T01:02:00;101310.0;;;8.38888888888889;54.7
64862;BME280;62652;42.274;-71.436;2023-04-20T01:03:01;101310.0;;;8.38888888888889;55.4
64862;BME280;62652;42.274;-71.436;2023-04-20T01:04:00;101310.0;;;8.277777777777779;55.1
64862;BME280;62652;42.274;-71.436;2023-04-20T01:05:01;101310.0;;;8.277777777777779;55.1
64862;BME280;62652;42.274;-71.436;2023-04-20T01:06:01;101310.0;;;8.222222222222221;55.2
64862;BME280;62652;42.274;-71.436;2023-04-20T01:07:01;101310.0;;;8.222222222222221;55.5
64862;BME280;62652;42.274;-71.436;2023-04-20T01:08:01;101310.0;;;8.222222222222221;55.6
64862;BME280;62652;42.274;-71.436;2023-04-20T01:09:01;101310.0;;;8.11111111111111;55.7
64862;BME280;62652;42.274;-71.436;2023-04-20T01:10:01;101310.0;;;8.11111111111111;55.9
64862;BME280;62652;42.274;-71.436;2023-04-20T01:11:01;101320.0;;;8.11111111111111;56.0
64862;BME280;62652;42.274;-71.436;2023-04-20T01:12:01;101320.0;;;8.0;56.3
64862;BME280;62652;42.274;-71.436;2023-04-20T01:13:00;101330.0;;;8.11111111111111;56.3
64862;BME280;62652;42.274;-71.436;2023-04-20T01:14:01;101330.0;;;8.11111111111111;56.8
64862;BME280;62652;42.274;-71.436;2023-04-20T01:15:01;101340.0;;;8.0;56.3
64862;BME280;62652;42.274;-71.436;2023-04-20T01:16:00;101340.0;;;8.0;56.7
64862;BME280;62652;42.274;-71.436;2023-04-20T01:17:01;101340.0;;;8.0;56.9
64862;BME280;62652;42.274;-71.436;2023-04-20T01:18:01;101340.0;;;8.11111111111111;56.6
64862;BME280;62652;42.274;-71.436;2023-04-20T01:19:01;101340.0;;;8.0;57.4
64862;BME280;62652;42.274;-71.436;2023-04-20T01:20:00;101340.0;;;8.11111111111111;57.6
64862;BME280;62652;42.274;-71.436;2023-04-20T01:21:01;101340.0;;;8.11111111111111;57.2
64862;BME280;62652;42.274;-71.436;2023-04-20T01:22:01;101350.0;;;8.11111111111111;57.8
64862;BME280;62652;42.274;-71.436;2023-04-20T01:23:00;101340.0;;;8.11111111111111;57.1
64862;BME280;62652;42.274;-71.436;2023-04-20T01:24:01;101350.0;;;8.222222222222221;57.4
64862;BME280;62652;42.274;-71.436;2023-04-20T01:25:00;101340.0;;;8.11111111111111;56.8
64862;BME280;62652;42.274;-71.436;2023-04-20T01:26:05;101340.0;;;8.11111111111111;56.7
64862;BME280;62652;42.274;-71.436;2023-04-20T01:27:01;101340.0;;;8.11111111111111;56.8
64862;BME280;62652;42.274;-71.436;2023-04-20T01:28:01;101340.0;;;8.11111111111111;57.2
64862;BME280;62652;42.274;-71.436;2023-04-20T01:29:01;101340.0;;;8.0;57.8
64862;BME280;62652;42.274;-71.436;2023-04-20T01:30:01;101330.0;;;8.0;58.0
64862;BME280;62652;42.274;-71.436;2023-04-20T01:31:02;101340.0;;;7.88888888888889;57.7
64862;BME280;62652;42.274;-71.436;2023-04-20T01:32:01;101340.0;;;7.88888888888889;58.2
64862;BME280;62652;42.274;-71.436;2023-04-20T01:33:01;101340.0;;;7.777777777777778;58.1
64862;BME280;62652;42.274;-71.436;2023-04-20T01:34:01;101340.0;;;7.777777777777778;58.5
64862;BME280;62652;42.274;-71.436;2023-04-20T01:35:02;101330.0;;;7.777777777777778;58.5
64862;BME280;62652;42.274;-71.436;2023-04-20T01:36:01;101330.0;;;7.722222222222222;58.7
64862;BME280;62652;42.274;-71.436;2023-04-20T01:37:01;101330.0;;;7.722222222222222;59.1
64862;BME280;62652;42.274;-71.436;2023-04-20T01:38:01;101330.0;;;7.722222222222222;58.5
64862;BME280;62652;42.274;-71.436;2023-04-20T01:39:00;101330.0;;;7.722222222222222;58.9
64862;BME280;62652;42.274;-71.436;2023-04-20T01:40:02;101330.0;;;7.722222222222222;59.1
64862;BME280;62652;42.274;-71.436;2023-04-20T01:41:02;101320.0;;;7.6111111111111125;59.8
64862;BME280;62652;42.274;-71.436;2023-04-20T01:42:01;101320.0;;;7.5;60.0
64862;BME280;62652;42.274;-71.436;2023-04-20T01:43:01;101330.0;;;7.5;60.1
64862;BME280;62652;42.274;-71.436;2023-04-20T01:44:01;101340.0;;;7.5;59.8
64862;BME280;62652;42.274;-71.436;2023-04-20T01:45:00;101330.0;;;7.5;59.9
64862;BME280;62652;42.274;-71.436;2023-04-20T01:46:01;101330.0;;;7.3888888888888875;60.0
64862;BME280;62652;42.274;-71.436;2023-04-20T01:47:01;101330.0;;;7.3888888888888875;60.1
64862;BME280;62652;42.274;-71.436;2023-04-20T01:48:01;101330.0;;;7.3888888888888875;60.3
64862;BME280;62652;42.274;-71.436;2023-04-20T01:49:00;101330.0;;;7.3888888888888875;60.1
64862;BME280;62652;42.274;-71.436;2023-04-20T01:50:01;101330.0;;;7.3888888888888875;59.3
64862;BME280;62652;42.274;-71.436;2023-04-20T01:51:00;101330.0;;;7.3888888888888875;59.7
64862;BME280;62652;42.274;-71.436;2023-04-20T01:52:00;101330.0;;;7.277777777777778;60.0
64862;BME280;62652;42.274;-71.436;2023-04-20T01:53:00;101330.0;;;7.277777777777778;59.2
64862;BME280;62652;42.274;-71.436;2023-04-20T01:54:01;101330.0;;;7.277777777777778;59.4
64862;BME280;62652;42.274;-71.436;2023-04-20T01:55:01;101330.0;;;7.277777777777778;59.0
64862;BME280;62652;42.274;-71.436;2023-04-20T01:56:00;101330.0;;;7.277777777777778;59.4
64862;BME280;62652;42.274;-71.436;2023-04-20T01:57:00;101320.0;;;7.222222222222222;59.6
64862;BME280;62652;42.274;-71.436;2023-04-20T01:58:01;101330.0;;;7.222222222222222;59.2
64862;BME280;62652;42.274;-71.436;2023-04-20T01:59:00;101320.0;;;7.222222222222222;58.9
64862;BME280;62652;42.274;-71.436;2023-04-20T02:00:00;101330.0;;;7.222222222222222;59.2
64862;BME280;62652;42.274;-71.436;2023-04-20T02:01:01;101330.0;;;7.222222222222222;58.9
64862;BME280;62652;42.274;-71.436;2023-04-20T02:02:01;101330.0;;;7.222222222222222;58.7
64862;BME280;62652;42.274;-71.436;2023-04-20T02:03:00;101330.0;;;7.222222222222222;59.1
64862;BME280;62652;42.274;-71.436;2023-04-20T02:04:01;101330.0;;;7.222222222222222;58.5
64862;BME280;62652;42.274;-71.436;2023-04-20T02:05:01;101330.0;;;7.222222222222222;58.4
64862;BME280;62652;42.274;-71.436;2023-04-20T02:06:00;101330.0;;;7.11111111111111;58.9
64862;BME280;62652;42.274;-71.436;2023-04-20T02:07:00;101340.0;;;7.11111111111111;59.2
64862;BME280;62652;42.274;-71.436;2023-04-20T02:08:00;101340.0;;;7.11111111111111;59.3
64862;BME280;62652;42.274;-71.436;2023-04-20T02:09:01;101340.0;;;7.11111111111111;59.5
64862;BME280;62652;42.274;-71.436;2023-04-20T02:10:01;101340.0;;;7.11111111111111;59.6
64862;BME280;62652;42.274;-71.436;2023-04-20T02:11:01;101340.0;;;7.000000000000001;59.7
64862;BME280;62652;42.274;-71.436;2023-04-20T02:12:00;101340.0;;;7.000000000000001;60.3
64862;BME280;62652;42.274;-71.436;2023-04-20T02:13:00;101340.0;;;7.000000000000001;60.5
64862;BME280;62652;42.274;-71.436;2023-04-20T02:14:01;101340.0;;;7.000000000000001;59.9
64862;BME280;62652;42.274;-71.436;2023-04-20T02:15:00;101340.0;;;7.000000000000001;59.7
64862;BME280;62652;42.274;-71.436;2023-04-20T02:16:01;101340.0;;;7.000000000000001;59.8
64862;BME280;62652;42.274;-71.436;2023-04-20T02:17:01;101340.0;;;7.000000000000001;60.0
64862;BME280;62652;42.274;-71.436;2023-04-20T02:18:00;101340.0;;;6.888888888888888;60.3
64862;BME280;62652;42.274;-71.436;2023-04-20T02:19:00;101340.0;;;6.888888888888888;60.5
64862;BME280;62652;42.274;-71.436;2023-04-20T02:20:01;101330.0;;;6.888888888888888;60.8
64862;BME280;62652;42.274;-71.436;2023-04-20T02:21:00;101330.0;;;6.888888888888888;60.7
64862;BME280;62652;42.274;-71.436;2023-04-20T02:22:00;101330.0;;;6.888888888888888;60.7
64862;BME280;62652;42.274;-71.436;2023-04-20T02:23:00;101320.0;;;6.888888888888888;61.0
64862;BME280;62652;42.274;-71.436;2023-04-20T02:24:00;101320.0;;;6.888888888888888;61.0
64862;BME280;62652;42.274;-71.436;2023-04-20T02:25:01;101320.0;;;6.7777777777777795;61.5
64862;BME280;62652;42.274;-71.436;2023-04-20T02:26:01;101320.0;;;6.7777777777777795;60.8
64862;BME280;62652;42.274;-71.436;2023-04-20T02:27:01;101320.0;;;6.7777777777777795;60.9
64862;BME280;62652;42.274;-71.436;2023-04-20T02:28:01;101320.0;;;6.7777777777777795;60.8
64862;BME280;62652;42.274;-71.436;2023-04-20T02:29:00;101320.0;;;6.7777777777777795;60.5
64862;BME280;62652;42.274;-71.436;2023-04-20T02:30:01;101320.0;;;6.7777777777777795;60.5
64862;BME280;62652;42.274;-71.436;2023-04-20T02:31:00;101320.0;;;6.7777777777777795;60.7
64862;BME280;62652;42.274;-71.436;2023-04-20T02:32:01;101330.0;;;6.722222222222223;61.0
64862;BME280;62652;42.274;-71.436;2023-04-20T02:33:00;101330.0;;;6.722222222222223;60.7
64862;BME280;62652;42.274;-71.436;2023-04-20T02:34:01;101330.0;;;6.722222222222223;60.5
64862;BME280;62652;42.274;-71.436;2023-04-20T02:35:01;101330.0;;;6.611111111111111;60.8
64862;BME280;62652;42.274;-71.436;2023-04-20T02:36:00;101330.0;;;6.611111111111111;60.7
64862;BME280;62652;42.274;-71.436;2023-04-20T02:37:01;101330.0;;;6.611111111111111;60.9
64862;BME280;62652;42.274;-71.436;2023-04-20T02:38:01;101340.0;;;6.611111111111111;60.9
64862;BME280;62652;42.274;-71.436;2023-04-20T02:39:01;101330.0;;;6.611111111111111;60.4
64862;BME280;62652;42.274;-71.436;2023-04-20T02:40:01;101340.0;;;6.611111111111111;60.1
64862;BME280;62652;42.274;-71.436;2023-04-20T02:41:00;101340.0;;;6.611111111111111;60.3
64862;BME280;62652;42.274;-71.436;2023-04-20T02:42:01;101350.0;;;6.611111111111111;60.4
64862;BME280;62652;42.274;-71.436;2023-04-20T02:43:01;101360.0;;;6.611111111111111;60.9
64862;BME280;62652;42.274;-71.436;2023-04-20T02:44:00;101360.0;;;6.611111111111111;61.0
64862;BME280;62652;42.274;-71.436;2023-04-20T02:45:01;101360.0;;;6.500000000000002;61.2
64862;BME280;62652;42.274;-71.436;2023-04-20T02:46:00;101360.0;;;6.500000000000002;60.9
64862;BME280;62652;42.274;-71.436;2023-04-20T02:47:00;101350.0;;;6.500000000000002;60.9
64862;BME280;62652;42.274;-71.436;2023-04-20T02:48:00;101360.0;;;6.500000000000002;60.9
64862;BME280;62652;42.274;-71.436;2023-04-20T02:49:01;101360.0;;;6.500000000000002;61.1
64862;BME280;62652;42.274;-71.436;2023-04-20T02:50:00;101360.0;;;6.500000000000002;61.4
64862;BME280;62652;42.274;-71.436;2023-04-20T02:51:01;101360.0;;;6.500000000000002;61.3
64862;BME280;62652;42.274;-71.436;2023-04-20T02:52:01;101350.0;;;6.500000000000002;61.5
64862;BME280;62652;42.274;-71.436;2023-04-20T02:53:00;101360.0;;;6.500000000000002;61.3
64862;BME280;62652;42.274;-71.436;2023-04-20T02:54:00;101350.0;;;6.500000000000002;61.1
64862;BME280;62652;42.274;-71.436;2023-04-20T02:55:01;101350.0;;;6.388888888888889;61.4
64862;BME280;62652;42.274;-71.436;2023-04-20T02:56:01;101350.0;;;6.388888888888889;61.0
64862;BME280;62652;42.274;-71.436;2023-04-20T02:57:00;101340.0;;;6.388888888888889;61.0
64862;BME280;62652;42.274;-71.436;2023-04-20T02:58:01;101350.0;;;6.388888888888889;61.4
64862;BME280;62652;42.274;-71.436;2023-04-20T02:59:01;101340.0;;;6.388888888888889;61.7
64862;BME280;62652;42.274;-71.436;2023-04-20T03:00:01;101350.0;;;6.388888888888889;61.8
64862;BME280;62652;42.274;-71.436;2023-04-20T03:01:01;101350.0;;;6.388888888888889;61.6
64862;BME280;62652;42.274;-71.436;2023-04-20T03:02:01;101360.0;;;6.388888888888889;61.8
64862;BME280;62652;42.274;-71.436;2023-04-20T03:03:00;101360.0;;;6.277777777777776;62.4
64862;BME280;62652;42.274;-71.436;2023-04-20T03:04:01;101360.0;;;6.388888888888889;62.4
64862;BME280;62652;42.274;-71.436;2023-04-20T03:05:00;101360.0;;;6.277777777777776;62.8
64862;BME280;62652;42.274;-71.436;2023-04-20T03:06:00;101360.0;;;6.277777777777776;63.1
64862;BME280;62652;42.274;-71.436;2023-04-20T03:07:01;101360.0;;;6.277777777777776;63.3
64862;BME280;62652;42.274;-71.436;2023-04-20T03:08:00;101360.0;;;6.277777777777776;63.4
64862;BME280;62652;42.274;-71.436;2023-04-20T03:09:01;101360.0;;;6.277777777777776;63.5
64862;BME280;62652;42.274;-71.436;2023-04-20T03:10:00;101350.0;;;6.277777777777776;63.8
64862;BME280;62652;42.274;-71.436;2023-04-20T03:11:01;101350.0;;;6.222222222222224;63.9
64862;BME280;62652;42.274;-71.436;2023-04-20T03:12:00;101350.0;;;6.222222222222224;64.5
64862;BME280;62652;42.274;-71.436;2023-04-20T03:13:00;101350.0;;;6.222222222222224;64.9
64862;BME280;62652;42.274;-71.436;2023-04-20T03:14:00;101350.0;;;6.222222222222224;64.9
64862;BME280;62652;42.274;-71.436;2023-04-20T03:15:03;101350.0;;;6.222222222222224;65.0
64862;BME280;62652;42.274;-71.436;2023-04-20T03:16:01;101350.0;;;6.222222222222224;65.4
64862;BME280;62652;42.274;-71.436;2023-04-20T03:17:00;101360.0;;;6.222222222222224;65.8
64862;BME280;62652;42.274;-71.436;2023-04-20T03:18:01;101350.0;;;6.222222222222224;65.4
64862;BME280;62652;42.274;-71.436;2023-04-20T03:19:00;101360.0;;;6.222222222222224;65.6
64862;BME280;62652;42.274;-71.436;2023-04-20T03:20:00;101360.0;;;6.111111111111111;65.8
64862;BME280;62652;42.274;-71.436;2023-04-20T03:21:01;101360.0;;;6.111111111111111;66.0
64862;BME280;62652;42.274;-71.436;2023-04-20T03:22:01;101360.0;;;6.111111111111111;65.9
64862;BME280;62652;42.274;-71.436;2023-04-20T03:23:01;101370.0;;;6.111111111111111;65.7
64862;BME280;62652;42.274;-71.436;2023-04-20T03:24:01;101370.0;;;6.111111111111111;66.2
64862;BME280;62652;42.274;-71.436;2023-04-20T03:25:00;101380.0;;;6.111111111111111;66.5
64862;BME280;62652;42.274;-71.436;2023-04-20T03:26:01;101370.0;;;6.111111111111111;66.5
64862;BME280;62652;42.274;-71.436;2023-04-20T03:27:00;101380.0;;;6.111111111111111;66.3
64862;BME280;62652;42.274;-71.436;2023-04-20T03:28:00;101380.0;;;6.111111111111111;66.5
64862;BME280;62652;42.274;-71.436;2023-04-20T03:29:01;101380.0;;;6.111111111111111;66.6
64862;BME280;62652;42.274;-71.436;2023-04-20T03:30:01;101380.0;;;6.111111111111111;66.6
64862;BME280;62652;42.274;-71.436;2023-04-20T03:31:00;101380.0;;;6.111111111111111;66.3
64862;BME280;62652;42.274;-71.436;2023-04-20T03:32:00;101390.0;;;6.111111111111111;66.5
64862;BME280;62652;42.274;-71.436;2023-04-20T03:33:01;101390.0;;;6.111111111111111;66.3
64862;BME280;62652;42.274;-71.436;2023-04-20T03:34:00;101390.0;;;6.111111111111111;66.8
64862;BME280;62652;42.274;-71.436;2023-04-20T03:35:01;101390.0;;;5.999999999999998;66.3
64862;BME280;62652;42.274;-71.436;2023-04-20T03:36:00;101390.0;;;5.999999999999998;66.3
64862;BME280;62652;42.274;-71.436;2023-04-20T03:37:00;101390.0;;;5.999999999999998;66.6
64862;BME280;62652;42.274;-71.436;2023-04-20T03:38:00;101390.0;;;5.999999999999998;66.7
64862;BME280;62652;42.274;-71.436;2023-04-20T03:39:00;101400.0;;;5.999999999999998;67.0
64862;BME280;62652;42.274;-71.436;2023-04-20T03:40:00;101400.0;;;5.999999999999998;67.6
64862;BME280;62652;42.274;-71.436;2023-04-20T03:41:01;101400.0;;;5.888888888888889;67.6
64862;BME280;62652;42.274;-71.436;2023-04-20T03:42:00;101400.0;;;5.888888888888889;67.9
64862;BME280;62652;42.274;-71.436;2023-04-20T03:43:01;101410.0;;;5.888888888888889;67.5
64862;BME280;62652;42.274;-71.436;2023-04-20T03:44:01;101410.0;;;5.888888888888889;67.7
64862;BME280;62652;42.274;-71.436;2023-04-20T03:45:00;101400.0;;;5.888888888888889;68.1
64862;BME280;62652;42.274;-71.436;2023-04-20T03:46:01;101400.0;;;5.888888888888889;68.2
64862;BME280;62652;42.274;-71.436;2023-04-20T03:47:01;101400.0;;;5.777777777777777;68.5
64862;BME280;62652;42.274;-71.436;2023-04-20T03:48:01;101400.0;;;5.777777777777777;69.0
64862;BME280;62652;42.274;-71.436;2023-04-20T03:49:00;101400.0;;;5.888888888888889;68.1
64862;BME280;62652;42.274;-71.436;2023-04-20T03:50:01;101410.0;;;5.888888888888889;68.0
64862;BME280;62652;42.274;-71.436;2023-04-20T03:51:00;101410.0;;;5.888888888888889;68.3
64862;BME280;62652;42.274;-71.436;2023-04-20T03:52:00;101410.0;;;5.888888888888889;68.7
64862;BME280;62652;42.274;-71.436;2023-04-20T03:53:00;101420.0;;;5.777777777777777;68.8
64862;BME280;62652;42.274;-71.436;2023-04-20T03:54:00;101410.0;;;5.777777777777777;68.9
64862;BME280;62652;42.274;-71.436;2023-04-20T03:55:01;101410.0;;;5.888888888888889;68.9
64862;BME280;62652;42.274;-71.436;2023-04-20T03:56:00;101410.0;;;5.888888888888889;68.8
64862;BME280;62652;42.274;-71.436;2023-04-20T03:57:01;101420.0;;;5.888888888888889;68.7
64862;BME280;62652;42.274;-71.436;2023-04-20T03:58:01;101420.0;;;5.888888888888889;68.6
64862;BME280;62652;42.274;-71.436;2023-04-20T03:59:01;101420.0;;;5.777777777777777;68.8
64862;BME280;62652;42.274;-71.436;2023-04-20T04:00:01;101420.0;;;5.888888888888889;69.2
64862;BME280;62652;42.274;-71.436;2023-04-20T04:01:01;101420.0;;;5.888888888888889;69.5
64862;BME280;62652;42.274;-71.436;2023-04-20T04:02:00;101420.0;;;5.777777777777777;69.6
64862;BME280;62652;42.274;-71.436;2023-04-20T04:03:00;101420.0;;;5.777777777777777;69.1
64862;BME280;62652;42.274;-71.436;2023-04-20T04:04:00;101420.0;;;5.777777777777777;69.2
64862;BME280;62652;42.274;-71.436;2023-04-20T04:05:00;101420.0;;;5.777777777777777;69.4
64862;BME280;62652;42.274;-71.436;2023-04-20T04:06:01;101420.0;;;5.7222222222222205;69.6
64862;BME280;62652;42.274;-71.436;2023-04-20T04:07:01;101420.0;;;5.7222222222222205;69.9
64862;BME280;62652;42.274;-71.436;2023-04-20T04:08:00;101420.0;;;5.7222222222222205;69.7
64862;BME280;62652;42.274;-71.436;2023-04-20T04:09:01;101420.0;;;5.777777777777777;69.9
64862;BME280;62652;42.274;-71.436;2023-04-20T04:10:00;101430.0;;;5.7222222222222205;70.1
64862;BME280;62652;42.274;-71.436;2023-04-20T04:11:01;101420.0;;;5.777777777777777;70.3
64862;BME280;62652;42.274;-71.436;2023-04-20T04:12:00;101430.0;;;5.7222222222222205;70.1
64862;BME280;62652;42.274;-71.436;2023-04-20T04:13:00;101430.0;;;5.7222222222222205;70.4
64862;BME280;62652;42.274;-71.436;2023-04-20T04:14:01;101430.0;;;5.7222222222222205;70.9
64862;BME280;62652;42.274;-71.436;2023-04-20T04:15:01;101430.0;;;5.7222222222222205;71.0
64862;BME280;62652;42.274;-71.436;2023-04-20T04:16:01;101430.0;;;5.611111111111112;71.2
64862;BME280;62652;42.274;-71.436;2023-04-20T04:17:01;101430.0;;;5.611111111111112;71.5
64862;BME280;62652;42.274;-71.436;2023-04-20T04:18:00;101440.0;;;5.611111111111112;71.6
64862;BME280;62652;42.274;-71.436;2023-04-20T04:19:00;101440.0;;;5.611111111111112;72.3
64862;BME280;62652;42.274;-71.436;2023-04-20T04:20:01;101440.0;;;5.611111111111112;71.9
64862;BME280;62652;42.274;-71.436;2023-04-20T04:21:01;101430.0;;;5.611111111111112;71.5
64862;BME280;62652;42.274;-71.436;2023-04-20T04:22:01;101430.0;;;5.611111111111112;71.9
64862;BME280;62652;42.274;-71.436;2023-04-20T04:23:01;101420.0;;;5.611111111111112;72.2
64862;BME280;62652;42.274;-71.436;2023-04-20T04:24:01;101420.0;;;5.611111111111112;71.7
64862;BME280;62652;42.274;-71.436;2023-04-20T04:25:01;101430.0;;;5.611111111111112;71.7
64862;BME280;62652;42.274;-71.436;2023-04-20T04:26:00;101430.0;;;5.499999999999999;71.9
64862;BME280;62652;42.274;-71.436;2023-04-20T04:27:01;101420.0;;;5.499999999999999;71.7
64862;BME280;62652;42.274;-71.436;2023-04-20T04:28:01;101420.0;;;5.499999999999999;72.0
64862;BME280;62652;42.274;-71.436;2023-04-20T04:29:01;101420.0;;;5.499999999999999;71.9
64862;BME280;62652;42.274;-71.436;2023-04-20T04:30:00;101420.0;;;5.499999999999999;71.7
64862;BME280;62652;42.274;-71.436;2023-04-20T04:31:00;101430.0;;;5.499999999999999;72.1
64862;BME280;62652;42.274;-71.436;2023-04-20T04:32:00;101430.0;;;5.499999999999999;72.0